アナディリ の空港の天気 - METARとTAF

アナディリ・ウゴルヌイ空港 ( UHMA / DYR ) - ロシア アナディリ
飛行場実況気象(Metar)
観測時間07/29 13:30 MAGT (07/29 02:30 UTC)
風向・風速西北西 8m/s
視程10km以上
天気現象
全天の8割程度の雲 雲底高度 980m
気温12℃
湿度58%
気圧995hPa
METARUHMA 290230Z 29008MPS 9999 BKN032 12/04 Q0995 R01/60D NOSIG RMK TDZ R01/29008G11MPS END R01/29009G11MPS QFE742/0990
過去の天気等 Google飛行場航空写真 Wunderground天気予報

過去48時間のMETAR

飛行場予報(TAF)
発表時間: 7/29 12:41 MAGT (7/29 01:41 UTC)
予報対象時間: 29日14時 MAGT ~ 30日14時 MAGT
風向・風速西北西 9m/s 瞬間風速 14m/s
視程10km以上
全天の8割程度の雲 雲底高度 610m
29日14時 MAGT ~ 29日20時 MAGT に一時的に
風向・風速西 14m/s 瞬間風速 20m/s
視程5000m
天気現象弱いしゅう雨 もや
全天の4割程度の雲 雲底高度 90m
全天の8割程度の積乱雲 雲底高度 300m
29日20時 MAGT ~ 30日11時 MAGT に一時的に
視程1100m
天気現象弱いしゅう雨 もや
全天の4割程度の雲 雲底高度 60m
全天の8割程度の積乱雲 雲底高度 300m
TAF UHMA 290141Z 2903/3003 29009G14MPS 9999 BKN020
TEMPO 2903/2909 28014G20MPS 5000 -SHRA BR SCT003 BKN010CB
TEMPO 2909/2924 1100 -SHRA BR SCT002 BKN010CB